createdAt,value
2016-11-05T00:00:51.711Z,0
2016-11-05T00:01:51.972Z,0
2016-11-05T00:02:51.646Z,0
2016-11-05T00:03:51.598Z,0
2016-11-05T00:04:51.862Z,0
2016-11-05T00:05:51.517Z,0
2016-11-05T00:06:51.778Z,0
2016-11-05T00:07:50.870Z,0
2016-11-05T00:08:51.707Z,0
2016-11-05T00:09:51.665Z,0
2016-11-05T00:10:51.330Z,0
2016-11-05T00:11:51.290Z,0
2016-11-05T00:12:51.587Z,0
2016-11-05T00:13:51.511Z,0
2016-11-05T00:14:50.872Z,0
2016-11-05T00:15:51.133Z,0
2016-11-05T00:16:51.399Z,0
2016-11-05T00:17:51.060Z,0
2016-11-05T00:18:51.326Z,0
2016-11-05T00:19:51.003Z,0
2016-11-05T00:20:51.245Z,0
2016-11-05T00:21:50.907Z,0
2016-11-05T00:22:50.877Z,0
2016-11-05T00:23:50.525Z,0
2016-11-05T00:24:51.092Z,0
2016-11-05T00:25:51.053Z,0
2016-11-05T00:26:51.015Z,0
2016-11-05T00:27:50.977Z,0
2016-11-05T00:28:50.637Z,0
2016-11-05T00:29:50.907Z,0
2016-11-05T00:30:50.859Z,0
2016-11-05T00:31:50.830Z,0
2016-11-05T00:32:50.788Z,0
2016-11-05T00:33:50.749Z,0
2016-11-05T00:34:50.411Z,0
2016-11-05T00:35:50.370Z,0
2016-11-05T00:36:49.722Z,0
2016-11-05T00:37:50.287Z,0
2016-11-05T00:38:50.263Z,0
2016-11-05T00:39:50.514Z,0
2016-11-05T00:40:49.876Z,0
2016-11-05T00:41:50.443Z,0
2016-11-05T00:42:49.796Z,0
2016-11-05T00:43:50.365Z,0
2016-11-05T00:44:49.427Z,0
2016-11-05T00:45:49.989Z,0
2016-11-05T00:46:50.252Z,0
2016-11-05T00:47:50.213Z,0
2016-11-05T00:48:50.170Z,0
2016-11-05T00:49:50.129Z,0
2016-11-05T00:50:50.098Z,0
2016-11-05T00:51:49.748Z,0
2016-11-05T00:52:49.412Z,0
2016-11-05T00:53:49.979Z,0
2016-11-05T00:54:49.635Z,0
2016-11-05T00:55:49.298Z,0
2016-11-05T00:56:49.858Z,0
2016-11-05T00:57:49.223Z,0
2016-11-05T00:58:49.486Z,0
2016-11-05T00:59:49.449Z,0
2016-11-05T01:00:49.107Z,0
2016-11-05T01:01:49.683Z,0
2016-11-05T01:02:49.334Z,0
2016-11-05T01:03:49.299Z,0
2016-11-05T01:04:48.955Z,0
2016-11-05T01:05:49.219Z,0
2016-11-05T01:06:49.528Z,0
2016-11-05T01:07:48.537Z,0
2016-11-05T01:08:49.404Z,0
2016-11-05T01:09:49.062Z,0
2016-11-05T01:10:48.726Z,0
2016-11-05T01:11:49.293Z,0
2016-11-05T01:12:48.646Z,0
2016-11-05T01:13:48.916Z,0
2016-11-05T01:14:49.174Z,0
2016-11-05T01:15:48.533Z,0
2016-11-05T01:16:49.095Z,0
2016-11-05T01:17:48.758Z,0
2016-11-05T01:18:48.759Z,0
2016-11-05T01:19:48.711Z,0
2016-11-05T01:20:48.644Z,0
2016-11-05T01:21:48.910Z,0
2016-11-05T01:22:48.872Z,0
2016-11-05T01:23:48.858Z,0
2016-11-05T01:24:48.797Z,0
2016-11-05T01:25:48.156Z,0
2016-11-05T01:26:48.420Z,0
2016-11-05T01:27:48.685Z,0
2016-11-05T01:28:48.376Z,0
2016-11-05T01:29:48.303Z,0
2016-11-05T01:30:48.259Z,0
2016-11-05T01:31:48.520Z,0
2016-11-05T01:32:48.494Z,0
2016-11-05T01:33:47.542Z,0
2016-11-05T01:34:48.144Z,0
2016-11-05T01:35:48.368Z,0
2016-11-05T01:36:48.037Z,0
2016-11-05T01:37:48.291Z,0
2016-11-05T01:38:48.258Z,0
2016-11-05T01:39:48.256Z,0
2016-11-05T01:40:47.881Z,0
2016-11-05T01:41:48.149Z,0
2016-11-05T01:42:48.104Z,0
2016-11-05T01:43:48.070Z,0
2016-11-05T01:44:47.727Z,0
2016-11-05T01:45:47.996Z,0
2016-11-05T01:46:47.948Z,0
2016-11-05T01:47:47.309Z,0
2016-11-05T01:48:47.273Z,0
2016-11-05T01:49:47.529Z,0
2016-11-05T01:50:47.500Z,0
2016-11-05T01:51:47.459Z,0
2016-11-05T01:52:47.419Z,0
2016-11-05T01:53:47.382Z,0
2016-11-05T01:54:47.341Z,0
2016-11-05T01:55:46.998Z,0
2016-11-05T01:56:47.574Z,0
2016-11-05T01:57:47.531Z,0
2016-11-05T01:58:47.494Z,0
2016-11-05T01:59:47.456Z,0
2016-11-05T02:00:47.422Z,0
2016-11-05T02:01:47.080Z,0
2016-11-05T02:02:46.740Z,0
2016-11-05T02:03:47.307Z,0
2016-11-05T02:04:46.662Z,0
2016-11-05T02:05:46.921Z,0
2016-11-05T02:06:46.885Z,0
2016-11-05T02:07:47.192Z,0
2016-11-05T02:08:46.811Z,0
2016-11-05T02:09:47.083Z,0
2016-11-05T02:10:47.045Z,0
2016-11-05T02:11:47.003Z,0
2016-11-05T02:12:46.963Z,0
2016-11-05T02:13:46.929Z,0
2016-11-05T02:14:46.281Z,0
2016-11-05T02:15:45.942Z,0
2016-11-05T02:16:46.510Z,0
2016-11-05T02:17:46.470Z,0
2016-11-05T02:18:46.740Z,0
2016-11-05T02:19:46.696Z,0
2016-11-05T02:20:46.361Z,0
2016-11-05T02:21:46.322Z,0
2016-11-05T02:22:46.284Z,0
2016-11-05T02:23:46.252Z,0
2016-11-05T02:24:46.204Z,0
2016-11-05T02:25:46.473Z,0
2016-11-05T02:26:46.439Z,0
2016-11-05T02:27:46.398Z,0
2016-11-05T02:28:45.755Z,0
2016-11-05T02:29:46.357Z,0
2016-11-05T02:30:45.986Z,0
2016-11-05T02:31:45.945Z,0
2016-11-05T02:32:45.910Z,0
2016-11-05T02:33:45.875Z,0
2016-11-05T02:34:46.138Z,0
2016-11-05T02:35:45.800Z,0
2016-11-05T02:36:45.153Z,0
2016-11-05T02:37:46.019Z,0
2016-11-05T02:38:45.683Z,0
2016-11-05T02:39:45.952Z,0
2016-11-05T02:40:45.619Z,0
2016-11-05T02:41:45.876Z,0
2016-11-05T02:42:45.550Z,0
2016-11-05T02:43:45.805Z,0
2016-11-05T02:44:45.761Z,0
2016-11-05T02:45:45.423Z,0
2016-11-05T02:46:45.686Z,0
2016-11-05T02:47:45.361Z,0
2016-11-05T02:48:45.353Z,0
2016-11-05T02:49:45.279Z,0
2016-11-05T02:50:44.935Z,0
2016-11-05T02:51:45.202Z,0
2016-11-05T02:52:44.866Z,0
2016-11-05T02:53:45.124Z,0
2016-11-05T02:54:45.080Z,0
2016-11-05T02:55:45.049Z,0
2016-11-05T02:56:45.317Z,0
2016-11-05T02:57:44.971Z,0
2016-11-05T02:58:45.244Z,0
2016-11-05T02:59:44.904Z,0
2016-11-05T03:00:45.165Z,0
2016-11-05T03:01:45.161Z,0
2016-11-05T03:02:44.797Z,0
2016-11-05T03:03:44.754Z,0
2016-11-05T03:04:44.411Z,0
2016-11-05T03:05:44.978Z,0
2016-11-05T03:06:44.647Z,0
2016-11-05T03:07:44.604Z,0
2016-11-05T03:08:44.568Z,0
2016-11-05T03:09:44.833Z,0
2016-11-05T03:10:43.885Z,0
2016-11-05T03:11:44.761Z,0
2016-11-05T03:12:44.721Z,0
2016-11-05T03:13:44.382Z,0
2016-11-05T03:14:44.341Z,0
2016-11-05T03:15:44.618Z,0
2016-11-05T03:16:44.274Z,0
2016-11-05T03:17:44.228Z,0
2016-11-05T03:18:44.500Z,0
2016-11-05T03:19:44.163Z,0
2016-11-05T03:20:43.821Z,0
2016-11-05T03:21:44.391Z,0
2016-11-05T03:22:43.781Z,0
2016-11-05T03:23:44.312Z,0
2016-11-05T03:24:44.275Z,0
2016-11-05T03:25:43.930Z,0
2016-11-05T03:26:43.591Z,0
2016-11-05T03:27:43.876Z,0
2016-11-05T03:28:44.124Z,0
2016-11-05T03:29:43.477Z,0
2016-11-05T03:30:43.742Z,0
2016-11-05T03:31:44.012Z,0
2016-11-05T03:32:43.671Z,0
2016-11-05T03:33:43.937Z,0
2016-11-05T03:34:43.299Z,0
2016-11-05T03:35:43.558Z,0
2016-11-05T03:36:43.823Z,0
2016-11-05T03:37:43.785Z,0
2016-11-05T03:38:43.450Z,0
2016-11-05T03:39:43.707Z,0
2016-11-05T03:40:43.393Z,0
2016-11-05T03:41:43.335Z,0
2016-11-05T03:42:43.610Z,0
2016-11-05T03:43:43.563Z,0
2016-11-05T03:44:42.924Z,0
2016-11-05T03:45:43.179Z,0
2016-11-05T03:46:42.846Z,0
2016-11-05T03:47:43.412Z,0
2016-11-05T03:48:42.769Z,0
2016-11-05T03:49:42.736Z,0
2016-11-05T03:50:42.395Z,0
2016-11-05T03:51:43.268Z,0
2016-11-05T03:52:43.232Z,0
2016-11-05T03:53:43.194Z,0
2016-11-05T03:54:42.850Z,0
2016-11-05T03:55:42.844Z,0
2016-11-05T03:56:42.774Z,0
2016-11-05T03:57:43.042Z,0
2016-11-05T03:58:43.003Z,0
2016-11-05T03:59:42.397Z,0
2016-11-05T04:00:42.632Z,0
2016-11-05T04:01:42.290Z,0
2016-11-05T04:02:42.552Z,0
2016-11-05T04:03:42.823Z,0
2016-11-05T04:04:42.174Z,0
2016-11-05T04:05:42.750Z,0
2016-11-05T04:06:42.707Z,0
2016-11-05T04:07:42.066Z,0
2016-11-05T04:08:42.326Z,0
2016-11-05T04:09:42.289Z,0
2016-11-05T04:10:42.255Z,0
2016-11-05T04:11:42.517Z,0
2016-11-05T04:12:42.218Z,0
2016-11-05T04:13:42.142Z,0
2016-11-05T04:14:42.106Z,0
2016-11-05T04:15:41.765Z,0
2016-11-05T04:16:42.327Z,0
2016-11-05T04:17:42.299Z,0
2016-11-05T04:18:41.355Z,0
2016-11-05T04:19:42.222Z,0
2016-11-05T04:20:41.896Z,0
2016-11-05T04:21:42.149Z,0
2016-11-05T04:22:41.808Z,0
2016-11-05T04:23:42.072Z,0
2016-11-05T04:24:42.033Z,0
2016-11-05T04:25:42.001Z,0
2016-11-05T04:26:41.665Z,0
2016-11-05T04:27:41.628Z,0
2016-11-05T04:28:41.583Z,0
2016-11-05T04:29:41.849Z,0
2016-11-05T04:30:41.813Z,0
2016-11-05T04:31:41.774Z,0
2016-11-05T04:32:41.430Z,0
2016-11-05T04:33:41.699Z,0
2016-11-05T04:34:41.361Z,0
2016-11-05T04:35:41.628Z,0
2016-11-05T04:36:41.589Z,0
2016-11-05T04:37:41.253Z,0
2016-11-05T04:38:40.917Z,0
2016-11-05T04:39:41.536Z,0
2016-11-05T04:40:41.180Z,0
2016-11-05T04:41:41.404Z,0
2016-11-05T04:42:41.368Z,0
2016-11-05T04:43:41.334Z,0
2016-11-05T04:44:41.294Z,0
2016-11-05T04:45:40.956Z,0
2016-11-05T04:46:41.222Z,0
2016-11-05T04:47:41.184Z,0
2016-11-05T04:48:41.146Z,0
2016-11-05T04:49:41.104Z,0
2016-11-05T04:50:41.072Z,0
2016-11-05T04:51:41.037Z,0
2016-11-05T04:52:40.090Z,0
2016-11-05T04:53:40.385Z,0
2016-11-05T04:54:40.012Z,0
2016-11-05T04:55:40.283Z,0
2016-11-05T04:56:40.546Z,0
2016-11-05T04:57:40.209Z,0
2016-11-05T04:58:40.468Z,0
2016-11-05T04:59:40.145Z,0
2016-11-05T05:00:40.397Z,0
2016-11-05T05:01:40.665Z,0
2016-11-05T05:02:40.053Z,0
2016-11-05T05:03:40.002Z,0
2016-11-05T05:04:40.249Z,0
2016-11-05T05:05:40.515Z,0
2016-11-05T05:06:40.475Z,0
2016-11-05T05:07:40.137Z,0
2016-11-05T05:08:40.134Z,0
2016-11-05T05:09:40.091Z,0
2016-11-05T05:10:40.326Z,0
2016-11-05T05:11:39.987Z,0
2016-11-05T05:12:39.952Z,0
2016-11-05T05:13:40.212Z,0
2016-11-05T05:14:39.878Z,0
2016-11-05T05:15:39.551Z,0
2016-11-05T05:16:39.802Z,0
2016-11-05T05:17:39.801Z,0
2016-11-05T05:18:40.032Z,0
2016-11-05T05:19:39.998Z,0
2016-11-05T05:20:39.952Z,0
2016-11-05T05:21:39.918Z,0
2016-11-05T05:22:39.882Z,0
2016-11-05T05:23:39.860Z,0
2016-11-05T05:24:39.503Z,0
2016-11-05T05:25:39.509Z,0
2016-11-05T05:26:39.426Z,0
2016-11-05T05:27:39.700Z,0
2016-11-05T05:28:39.052Z,0
2016-11-05T05:29:39.036Z,0
2016-11-05T05:30:39.282Z,0
2016-11-05T05:31:39.544Z,0
2016-11-05T05:32:39.511Z,0
2016-11-05T05:33:39.169Z,0
2016-11-05T05:34:39.434Z,0
2016-11-05T05:35:39.404Z,0
2016-11-05T05:36:39.365Z,0
2016-11-05T05:37:39.321Z,0
2016-11-05T05:38:38.980Z,0
2016-11-05T05:39:38.946Z,0
2016-11-05T05:40:39.245Z,0
2016-11-05T05:41:39.174Z,0
2016-11-05T05:42:39.135Z,0
2016-11-05T05:43:39.104Z,0
2016-11-05T05:44:39.065Z,0
2016-11-05T05:45:39.023Z,0
2016-11-05T05:46:39.015Z,0
2016-11-05T05:47:38.351Z,0
2016-11-05T05:48:38.915Z,0
2016-11-05T05:49:38.264Z,0
2016-11-05T05:50:38.832Z,0
2016-11-05T05:51:38.805Z,0
2016-11-05T05:52:38.765Z,0
2016-11-05T05:53:38.419Z,0
2016-11-05T05:54:37.789Z,0
2016-11-05T05:55:38.656Z,0
2016-11-05T05:56:38.617Z,0
2016-11-05T05:57:38.578Z,0
2016-11-05T05:58:38.576Z,0
2016-11-05T05:59:38.500Z,0
2016-11-05T06:00:37.556Z,0
2016-11-05T06:01:38.129Z,0
2016-11-05T06:02:38.393Z,0
2016-11-05T06:03:37.448Z,0
2016-11-05T06:04:38.320Z,0
2016-11-05T06:05:37.972Z,0
2016-11-05T06:06:37.683Z,0
2016-11-05T06:07:37.899Z,0
2016-11-05T06:08:37.860Z,0
2016-11-05T06:09:37.829Z,0
2016-11-05T06:10:38.096Z,0
2016-11-05T06:11:38.055Z,0
2016-11-05T06:12:37.713Z,0
2016-11-05T06:13:37.982Z,0
2016-11-05T06:14:37.645Z,0
2016-11-05T06:15:37.599Z,0
2016-11-05T06:16:37.562Z,0
2016-11-05T06:17:37.528Z,0
2016-11-05T06:18:36.891Z,0
2016-11-05T06:19:37.460Z,0
2016-11-05T06:20:37.121Z,0
2016-11-05T06:21:37.374Z,0
2016-11-05T06:22:37.650Z,0
2016-11-05T06:23:37.304Z,0
2016-11-05T06:24:37.575Z,0
2016-11-05T06:25:37.232Z,5
2016-11-05T06:26:36.887Z,5
2016-11-05T06:27:37.157Z,5
2016-11-05T06:28:36.826Z,5
2016-11-05T06:29:37.379Z,5
2016-11-05T06:30:37.344Z,5
2016-11-05T06:31:37.306Z,5
2016-11-05T06:32:36.964Z,5
2016-11-05T06:33:36.966Z,5
2016-11-05T06:34:37.214Z,5
2016-11-05T06:35:37.162Z,5
2016-11-05T06:36:37.133Z,5
2016-11-05T06:37:36.484Z,5
2016-11-05T06:38:36.444Z,5
2016-11-05T06:39:36.710Z,5
2016-11-05T06:40:36.970Z,5
2016-11-05T06:41:36.627Z,5
2016-11-05T06:42:36.899Z,5
2016-11-05T06:43:36.861Z,10
2016-11-05T06:44:36.819Z,10
2016-11-05T06:45:36.488Z,10
2016-11-05T06:46:36.749Z,10
2016-11-05T06:47:36.702Z,10
2016-11-05T06:48:36.671Z,10
2016-11-05T06:49:36.367Z,10
2016-11-05T06:50:36.599Z,10
2016-11-05T06:51:36.560Z,10
2016-11-05T06:52:36.223Z,15
2016-11-05T06:53:36.183Z,15
2016-11-05T06:54:36.149Z,15
2016-11-05T06:55:36.413Z,15
2016-11-05T06:56:36.067Z,15
2016-11-05T06:57:36.337Z,15
2016-11-05T06:58:35.995Z,15
2016-11-05T06:59:35.958Z,15
2016-11-05T07:00:35.611Z,20
2016-11-05T07:01:36.190Z,20
2016-11-05T07:02:35.841Z,15
2016-11-05T07:03:35.802Z,15
2016-11-05T07:04:35.767Z,15
2016-11-05T07:05:36.033Z,15
2016-11-05T07:06:35.998Z,20
2016-11-05T07:07:35.655Z,20
2016-11-05T07:08:35.623Z,20
2016-11-05T07:09:35.584Z,25
2016-11-05T07:10:35.243Z,30
2016-11-05T07:11:35.503Z,30
2016-11-05T07:12:35.467Z,35
2016-11-05T07:13:35.731Z,40
2016-11-05T07:14:35.706Z,40
2016-11-05T07:15:35.657Z,45
2016-11-05T07:16:35.627Z,45
2016-11-05T07:17:35.582Z,45
2016-11-05T07:18:35.246Z,45
2016-11-05T07:19:35.201Z,50
2016-11-05T07:20:35.485Z,50
2016-11-05T07:21:35.120Z,55
2016-11-05T07:22:35.090Z,60
2016-11-05T07:23:34.451Z,65
2016-11-05T07:24:35.320Z,70
2016-11-05T07:25:35.284Z,65
2016-11-05T07:26:34.946Z,60
2016-11-05T07:27:34.904Z,60
2016-11-05T07:28:35.169Z,60
2016-11-05T07:29:35.133Z,60
2016-11-05T07:30:35.099Z,65
2016-11-05T07:31:34.495Z,70
2016-11-05T07:32:34.711Z,75
2016-11-05T07:33:34.379Z,75
2016-11-05T07:34:34.943Z,80
2016-11-05T07:35:34.949Z,85
2016-11-05T07:36:34.564Z,90
2016-11-05T07:37:34.874Z,90
2016-11-05T07:38:34.803Z,95
2016-11-05T07:39:33.862Z,95
2016-11-05T07:40:34.122Z,95
2016-11-05T07:41:34.386Z,95
2016-11-05T07:42:34.657Z,90
2016-11-05T07:43:34.042Z,90
2016-11-05T07:44:34.573Z,100
2016-11-05T07:45:34.542Z,105
2016-11-05T07:46:34.196Z,115
2016-11-05T07:47:34.466Z,115
2016-11-05T07:48:34.425Z,115
2016-11-05T07:49:34.389Z,110
2016-11-05T07:50:34.353Z,105
2016-11-05T07:51:34.012Z,105
2016-11-05T07:52:33.709Z,105
2016-11-05T07:53:33.634Z,100
2016-11-05T07:54:33.604Z,100
2016-11-05T07:55:33.564Z,105
2016-11-05T07:56:33.831Z,115
2016-11-05T07:57:34.096Z,130
2016-11-05T07:58:34.055Z,145
2016-11-05T07:59:33.759Z,175
2016-11-05T08:00:33.689Z,200
2016-11-05T08:01:33.640Z,205
2016-11-05T08:02:33.911Z,195
2016-11-05T08:03:33.873Z,190
2016-11-05T08:04:33.542Z,175
2016-11-05T08:05:33.497Z,170
2016-11-05T08:06:33.158Z,165
2016-11-05T08:07:33.721Z,155
2016-11-05T08:08:33.684Z,150
2016-11-05T08:09:33.652Z,155
2016-11-05T08:10:33.614Z,165
2016-11-05T08:11:33.274Z,185
2016-11-05T08:12:33.544Z,220
2016-11-05T08:13:33.505Z,235
2016-11-05T08:14:32.862Z,240
2016-11-05T08:15:32.837Z,210
2016-11-05T08:16:33.094Z,220
2016-11-05T08:17:32.758Z,235
2016-11-05T08:18:33.022Z,250
2016-11-05T08:19:32.981Z,240
2016-11-05T08:20:33.251Z,265
2016-11-05T08:21:32.616Z,290
2016-11-05T08:22:33.174Z,320
2016-11-05T08:23:32.847Z,295
2016-11-05T08:24:33.140Z,215
2016-11-05T08:25:32.467Z,160
2016-11-05T08:26:33.037Z,135
2016-11-05T08:27:32.996Z,135
2016-11-05T08:28:32.701Z,140
2016-11-05T08:29:32.972Z,135
2016-11-05T08:30:32.589Z,130
2016-11-05T08:31:32.263Z,120
2016-11-05T08:32:32.516Z,110
2016-11-05T08:33:32.479Z,110
2016-11-05T08:34:32.754Z,120
2016-11-05T08:35:32.712Z,125
2016-11-05T08:36:32.380Z,115
2016-11-05T08:37:32.339Z,110
2016-11-05T08:38:32.004Z,105
2016-11-05T08:39:32.274Z,110
2016-11-05T08:40:32.249Z,125
2016-11-05T08:41:32.226Z,140
2016-11-05T08:42:31.886Z,150
2016-11-05T08:43:32.429Z,170
2016-11-05T08:44:32.091Z,195
2016-11-05T08:45:32.058Z,185
2016-11-05T08:46:32.023Z,170
2016-11-05T08:47:32.290Z,145
2016-11-05T08:48:31.645Z,135
2016-11-05T08:49:31.918Z,125
2016-11-05T08:50:31.577Z,120
2016-11-05T08:51:32.156Z,110
2016-11-05T08:52:32.121Z,100
2016-11-05T08:53:32.076Z,95
2016-11-05T08:54:31.786Z,95
2016-11-05T08:55:31.706Z,90
2016-11-05T08:56:31.969Z,85
2016-11-05T08:57:31.632Z,85
2016-11-05T08:58:31.939Z,85
2016-11-05T08:59:31.865Z,85
2016-11-05T09:00:31.529Z,85
2016-11-05T09:01:31.193Z,80
2016-11-05T09:02:31.763Z,80
2016-11-05T09:03:31.760Z,80
2016-11-05T09:04:31.690Z,85
2016-11-05T09:05:31.344Z,95
2016-11-05T09:06:31.318Z,95
2016-11-05T09:07:30.983Z,90
2016-11-05T09:08:31.242Z,90
2016-11-05T09:09:31.208Z,85
2016-11-05T09:10:31.213Z,80
2016-11-05T09:11:31.144Z,80
2016-11-05T09:12:31.107Z,80
2016-11-05T09:13:31.381Z,80
2016-11-05T09:14:31.032Z,75
2016-11-05T09:15:31.034Z,70
2016-11-05T09:16:30.965Z,75
2016-11-05T09:17:31.280Z,85
2016-11-05T09:18:31.193Z,90
2016-11-05T09:19:31.164Z,85
2016-11-05T09:20:31.135Z,80
2016-11-05T09:21:31.089Z,75
2016-11-05T09:22:31.047Z,70
2016-11-05T09:23:30.113Z,70
2016-11-05T09:24:31.022Z,70
2016-11-05T09:25:30.962Z,65
2016-11-05T09:26:30.607Z,60
2016-11-05T09:27:30.274Z,55
2016-11-05T09:28:30.543Z,50
2016-11-05T09:29:30.802Z,50
2016-11-05T09:30:30.769Z,50
2016-11-05T09:31:30.736Z,50
2016-11-05T09:32:30.132Z,50
2016-11-05T09:33:29.755Z,50
2016-11-05T09:34:30.637Z,50
2016-11-05T09:35:30.596Z,50
2016-11-05T09:36:30.254Z,50
2016-11-05T09:37:30.528Z,45
2016-11-05T09:38:30.228Z,45
2016-11-05T09:39:30.450Z,45
2016-11-05T09:40:30.115Z,45
2016-11-05T09:41:30.083Z,50
2016-11-05T09:42:29.438Z,50
2016-11-05T09:43:30.312Z,60
2016-11-05T09:44:30.284Z,65
2016-11-05T09:45:29.639Z,65
2016-11-05T09:46:29.902Z,65
2016-11-05T09:47:29.868Z,60
2016-11-05T09:48:30.142Z,55
2016-11-05T09:49:30.093Z,55
2016-11-05T09:50:29.792Z,50
2016-11-05T09:51:29.725Z,50
2016-11-05T09:52:29.421Z,50
2016-11-05T09:53:29.960Z,50
2016-11-05T09:54:29.315Z,50
2016-11-05T09:55:29.593Z,50
2016-11-05T09:56:29.547Z,55
2016-11-05T09:57:29.508Z,65
2016-11-05T09:58:29.172Z,80
2016-11-05T09:59:29.743Z,95
2016-11-05T10:00:29.444Z,105
2016-11-05T10:01:29.666Z,105
2016-11-05T10:02:29.336Z,105
2016-11-05T10:03:29.606Z,100
2016-11-05T10:04:29.260Z,100
2016-11-05T10:05:29.527Z,100
2016-11-05T10:06:29.190Z,95
2016-11-05T10:07:29.156Z,85
2016-11-05T10:08:29.429Z,75
2016-11-05T10:09:29.386Z,80
2016-11-05T10:10:29.398Z,90
2016-11-05T10:11:29.061Z,90
2016-11-05T10:12:28.973Z,85
2016-11-05T10:13:28.940Z,80
2016-11-05T10:14:29.208Z,85
2016-11-05T10:15:29.180Z,75
2016-11-05T10:16:28.837Z,80
2016-11-05T10:17:29.101Z,90
2016-11-05T10:18:29.077Z,95
2016-11-05T10:19:28.730Z,100
2016-11-05T10:20:28.394Z,100
2016-11-05T10:21:28.659Z,95
2016-11-05T10:22:28.621Z,90
2016-11-05T10:23:28.585Z,80
2016-11-05T10:24:28.854Z,80
2016-11-05T10:25:28.834Z,80
2016-11-05T10:26:28.183Z,85
2016-11-05T10:27:28.179Z,90
2016-11-05T10:28:28.111Z,90
2016-11-05T10:29:28.678Z,90
2016-11-05T10:30:28.379Z,80
2016-11-05T10:31:27.697Z,75
2016-11-05T10:32:28.574Z,85
2016-11-05T10:33:28.544Z,90
2016-11-05T10:34:28.500Z,100
2016-11-05T10:35:28.170Z,120
2016-11-05T10:36:28.125Z,140
2016-11-05T10:37:28.422Z,130
2016-11-05T10:38:28.358Z,120
2016-11-05T10:39:28.326Z,130
2016-11-05T10:40:28.290Z,130
2016-11-05T10:41:27.957Z,125
2016-11-05T10:42:28.221Z,115
2016-11-05T10:43:28.195Z,115
2016-11-05T10:44:27.841Z,120
2016-11-05T10:45:27.802Z,130
2016-11-05T10:46:28.078Z,150
2016-11-05T10:47:28.045Z,165
2016-11-05T10:48:27.706Z,170
2016-11-05T10:49:27.365Z,160
2016-11-05T10:50:27.937Z,150
2016-11-05T10:51:27.897Z,145
2016-11-05T10:52:27.861Z,130
2016-11-05T10:53:27.533Z,120
2016-11-05T10:54:27.498Z,110
2016-11-05T10:55:27.462Z,105
2016-11-05T10:56:27.115Z,110
2016-11-05T10:57:27.389Z,110
2016-11-05T10:58:27.659Z,100
2016-11-05T10:59:27.315Z,95
2016-11-05T11:00:26.985Z,100
2016-11-05T11:01:27.253Z,95
2016-11-05T11:02:26.923Z,85
2016-11-05T11:03:26.872Z,80
2016-11-05T11:04:27.141Z,75
2016-11-05T11:05:26.810Z,80
2016-11-05T11:06:26.807Z,85
2016-11-05T11:07:27.041Z,100
2016-11-05T11:08:27.003Z,110
2016-11-05T11:09:26.667Z,110
2016-11-05T11:10:26.941Z,95
2016-11-05T11:11:26.899Z,95
2016-11-05T11:12:26.864Z,100
2016-11-05T11:13:27.127Z,100
2016-11-05T11:14:27.091Z,90
2016-11-05T11:15:26.756Z,75
2016-11-05T11:16:26.419Z,70
2016-11-05T11:17:26.083Z,65
2016-11-05T11:18:26.650Z,55
2016-11-05T11:19:26.922Z,55
2016-11-05T11:20:26.276Z,55
2016-11-05T11:21:26.849Z,60
2016-11-05T11:22:26.512Z,70
2016-11-05T11:23:26.774Z,75
2016-11-05T11:24:26.752Z,90
2016-11-05T11:25:26.406Z,105
2016-11-05T11:26:26.074Z,105
2016-11-05T11:27:26.332Z,105
2016-11-05T11:28:26.602Z,105
2016-11-05T11:29:26.269Z,125
2016-11-05T11:30:26.533Z,110
2016-11-05T11:31:26.196Z,90
2016-11-05T11:32:26.155Z,75
2016-11-05T11:33:26.122Z,70
2016-11-05T11:34:25.786Z,75
2016-11-05T11:35:26.376Z,85
2016-11-05T11:36:26.326Z,80
2016-11-05T11:37:25.995Z,80
2016-11-05T11:38:25.950Z,90
2016-11-05T11:39:25.606Z,85
2016-11-05T11:40:25.882Z,80
2016-11-05T11:41:25.545Z,80
2016-11-05T11:42:26.108Z,90
2016-11-05T11:43:25.784Z,95
2016-11-05T11:44:25.468Z,105
2016-11-05T11:45:26.348Z,95
2016-11-05T11:46:25.966Z,85
2016-11-05T11:47:25.336Z,80
2016-11-05T11:48:25.889Z,75
2016-11-05T11:49:25.260Z,80
2016-11-05T11:50:25.222Z,85
2016-11-05T11:51:25.484Z,85
2016-11-05T11:52:25.753Z,80
2016-11-05T11:53:25.723Z,85
2016-11-05T11:54:25.723Z,95
2016-11-05T11:55:25.349Z,90
2016-11-05T11:56:25.617Z,80
2016-11-05T11:57:25.580Z,65
2016-11-05T11:58:25.543Z,60
2016-11-05T11:59:25.505Z,55
2016-11-05T12:00:25.473Z,60
2016-11-05T12:01:25.489Z,60
2016-11-05T12:02:25.098Z,60
2016-11-05T12:03:25.061Z,60
2016-11-05T12:04:25.329Z,60
2016-11-05T12:05:25.025Z,60
2016-11-05T12:06:25.262Z,70
2016-11-05T12:07:24.628Z,80
2016-11-05T12:08:24.884Z,85
2016-11-05T12:09:24.854Z,85
2016-11-05T12:10:25.118Z,80
2016-11-05T12:11:24.478Z,75
2016-11-05T12:12:25.048Z,70
2016-11-05T12:13:24.713Z,65
2016-11-05T12:14:24.070Z,70
2016-11-05T12:15:24.644Z,80
2016-11-05T12:16:24.602Z,90
2016-11-05T12:17:24.264Z,95
2016-11-05T12:18:24.242Z,100
2016-11-05T12:19:24.198Z,95
2016-11-05T12:20:24.765Z,85
2016-11-05T12:21:24.423Z,75
2016-11-05T12:22:24.692Z,70
2016-11-05T12:23:24.352Z,75
2016-11-05T12:24:24.049Z,80
2016-11-05T12:25:24.284Z,80
2016-11-05T12:26:24.254Z,75
2016-11-05T12:27:23.912Z,75
2016-11-05T12:28:23.918Z,80
2016-11-05T12:29:24.146Z,75
2016-11-05T12:30:24.108Z,70
2016-11-05T12:31:24.073Z,75
2016-11-05T12:32:24.038Z,75
2016-11-05T12:33:24.303Z,75
2016-11-05T12:34:23.662Z,75
2016-11-05T12:35:23.658Z,75
2016-11-05T12:36:24.196Z,75
2016-11-05T12:37:24.160Z,85
2016-11-05T12:38:23.828Z,75
2016-11-05T12:39:24.093Z,75
2016-11-05T12:40:23.758Z,75
2016-11-05T12:41:24.019Z,75
2016-11-05T12:42:24.008Z,70
2016-11-05T12:43:23.952Z,65
2016-11-05T12:44:23.618Z,60
2016-11-05T12:45:23.880Z,65
2016-11-05T12:46:23.866Z,75
2016-11-05T12:47:23.201Z,80
2016-11-05T12:48:23.702Z,75
2016-11-05T12:49:23.741Z,75
2016-11-05T12:50:23.704Z,70
2016-11-05T12:51:23.403Z,75
2016-11-05T12:52:23.633Z,75
2016-11-05T12:53:23.595Z,80
2016-11-05T12:54:22.964Z,85
2016-11-05T12:55:23.528Z,90
2016-11-05T12:56:23.489Z,90
2016-11-05T12:57:22.851Z,95
2016-11-05T12:58:23.422Z,95
2016-11-05T12:59:22.782Z,100
2016-11-05T13:00:23.347Z,105
2016-11-05T13:01:23.011Z,105
2016-11-05T13:02:22.971Z,110
2016-11-05T13:03:22.942Z,115
2016-11-05T13:04:23.209Z,115
2016-11-05T13:05:22.872Z,100
2016-11-05T13:06:22.533Z,95
2016-11-05T13:07:22.519Z,90
2016-11-05T13:08:22.768Z,80
2016-11-05T13:09:22.731Z,80
2016-11-05T13:10:23.002Z,80
2016-11-05T13:11:22.965Z,90
2016-11-05T13:12:22.630Z,115
2016-11-05T13:13:22.587Z,125
2016-11-05T13:14:22.862Z,115
2016-11-05T13:15:22.221Z,115
2016-11-05T13:16:22.180Z,100
2016-11-05T13:17:22.147Z,95
2016-11-05T13:18:22.413Z,100
2016-11-05T13:19:22.382Z,105
2016-11-05T13:20:22.347Z,105
2016-11-05T13:21:22.344Z,105
2016-11-05T13:22:22.577Z,95
2016-11-05T13:23:22.543Z,65
2016-11-05T13:24:22.513Z,50
2016-11-05T13:25:21.904Z,65
2016-11-05T13:26:22.438Z,80
2016-11-05T13:27:22.405Z,75
2016-11-05T13:28:22.067Z,70
2016-11-05T13:29:22.329Z,65
2016-11-05T13:30:21.696Z,65
2016-11-05T13:31:22.268Z,65
2016-11-05T13:32:21.945Z,70
2016-11-05T13:33:22.198Z,75
2016-11-05T13:34:21.560Z,70
2016-11-05T13:35:21.832Z,70
2016-11-05T13:36:22.121Z,70
2016-11-05T13:37:21.756Z,75
2016-11-05T13:38:22.016Z,85
2016-11-05T13:39:21.687Z,100
2016-11-05T13:40:21.354Z,105
2016-11-05T13:41:21.307Z,110
2016-11-05T13:42:21.276Z,120
2016-11-05T13:43:21.545Z,125
2016-11-05T13:44:21.809Z,125
2016-11-05T13:45:21.501Z,125
2016-11-05T13:46:21.439Z,115
2016-11-05T13:47:21.407Z,110
2016-11-05T13:48:21.407Z,105
2016-11-05T13:49:21.633Z,110
2016-11-05T13:50:21.627Z,110
2016-11-05T13:51:21.565Z,105
2016-11-05T13:52:21.371Z,95
2016-11-05T13:53:21.497Z,85
2016-11-05T13:54:21.150Z,75
2016-11-05T13:55:21.121Z,70
2016-11-05T13:56:21.086Z,70
2016-11-05T13:57:21.348Z,70
2016-11-05T13:58:21.316Z,70
2016-11-05T13:59:20.980Z,70
2016-11-05T14:00:20.947Z,75
2016-11-05T14:01:21.218Z,80
2016-11-05T14:02:20.875Z,80
2016-11-05T14:03:21.140Z,75
2016-11-05T14:04:20.808Z,75
2016-11-05T14:05:20.771Z,70
2016-11-05T14:06:20.741Z,70
2016-11-05T14:07:20.704Z,70
2016-11-05T14:08:20.966Z,80
2016-11-05T14:09:20.639Z,85
2016-11-05T14:10:20.901Z,85
2016-11-05T14:11:20.257Z,85
2016-11-05T14:12:20.529Z,80
2016-11-05T14:13:20.824Z,75
2016-11-05T14:14:20.756Z,75
2016-11-05T14:15:20.741Z,75
2016-11-05T14:16:20.402Z,75
2016-11-05T14:17:20.654Z,75
2016-11-05T14:18:20.014Z,75
2016-11-05T14:19:20.581Z,75
2016-11-05T14:20:20.254Z,75
2016-11-05T14:21:20.517Z,75
2016-11-05T14:22:19.874Z,80
2016-11-05T14:23:19.849Z,80
2016-11-05T14:24:20.412Z,80